Terminal Aerodrome Forecast
Issued by NWS North Platte, NE

Home | Current Version | Previous Version | Graphics & Text | Print | Product List | Glossary On
Versions: 1 2 3 4 5 6 7 8 9 10 11 12 13 14 15 16 17 18
000
FTUS43 KLBF 222329 CCA
TAFVTN
TAF COR
KVTN 222329Z 2300/2324 17017G24KT P6SM VCTS BKN050CB
      TEMPO 2300/2304 VRB25G40KT 2SM +TSRAGR SQ BKN040CB
     FM230400 19015G22KT P6SM -TSRA BKN050CB
      TEMPO 2304/2307 34025G40KT 3SM +TSRA SQ OVC025CB
     FM231000 25008KT P6SM BKN120
     FM231400 29006KT P6SM SCT250
     FM231600 29007KT P6SM SKC=

USA.gov is the U.S. government's official web portal to all federal, state and local government web resources and services.